Time;durP1;ratioP1;P1;durP2;ratioP2;P2;SDS_P1;SDS_P2;PMS_P1;PMS_P2;Temp;Humidity;BMP_temperature;BMP_pressure;BME280_temperature;BME280_humidity;BME280_pressure;Samples;Min_cycle;Max_cycle;Signal;HPM_P1;HPM_P2
2023/06/10 00:00:45;;;;;;;1.40;1.30;;;;;;;16.29;100.00;99450.20;104659;1264;72991;-46
2023/06/10 00:03:12;;;;;;;3.50;1.40;;;;;;;16.24;100.00;99448.40;104585;1272;66649;-46
2023/06/10 00:05:41;;;;;;;4.40;1.00;;;;;;;16.18;100.00;99449.44;106156;1267;72615;-46
2023/06/10 00:08:08;;;;;;;1.20;1.10;;;;;;;16.10;100.00;99452.75;104596;1276;60018;-46
2023/06/10 00:10:36;;;;;;;6.60;1.20;;;;;;;16.03;100.00;99449.12;104492;1270;59739;-46
2023/06/10 00:13:04;;;;;;;4.10;1.10;;;;;;;15.96;100.00;99447.48;108394;1263;73055;-46
2023/06/10 00:15:32;;;;;;;2.00;1.00;;;;;;;15.87;100.00;99447.41;108342;1268;67133;-47
2023/06/10 00:18:01;;;;;;;2.10;0.90;;;;;;;15.77;100.00;99445.46;108389;1263;71656;-46
2023/06/10 00:20:28;;;;;;;3.30;1.00;;;;;;;15.65;100.00;99444.40;108358;1265;63731;-47
2023/06/10 00:22:56;;;;;;;1.60;1.00;;;;;;;15.53;100.00;99447.53;108413;1263;60211;-47
2023/06/10 00:25:25;;;;;;;2.30;1.10;;;;;;;15.45;100.00;99446.72;108352;1263;73049;-47
2023/06/10 00:27:52;;;;;;;4.50;1.50;;;;;;;15.37;100.00;99443.52;108274;1263;66683;-47
2023/06/10 00:30:21;;;;;;;3.30;1.10;;;;;;;15.30;100.00;99445.46;108153;1269;75515;-47
2023/06/10 00:32:48;;;;;;;1.80;0.80;;;;;;;15.23;100.00;99443.61;108305;1269;61915;-47
2023/06/10 00:35:16;;;;;;;1.90;1.20;;;;;;;15.17;100.00;99443.88;108320;1269;60012;-47
2023/06/10 00:37:43;;;;;;;4.10;1.00;;;;;;;15.12;100.00;99444.06;108455;1266;72330;-47
2023/06/10 00:40:11;;;;;;;1.10;1.00;;;;;;;15.04;100.00;99443.90;108492;1260;70034;-47
2023/06/10 00:42:39;;;;;;;1.20;1.10;;;;;;;14.95;100.00;99442.01;108415;1260;71473;-47
2023/06/10 00:45:06;;;;;;;2.30;0.80;;;;;;;14.90;100.00;99439.63;108447;1261;60688;-47
2023/06/10 00:47:36;;;;;;;1.30;0.80;;;;;;;14.90;100.00;99436.75;108390;1260;59972;-47
2023/06/10 00:50:04;;;;;;;1.50;1.00;;;;;;;14.92;100.00;99432.27;108444;1260;73016;-47
2023/06/10 00:52:31;;;;;;;4.70;0.90;;;;;;;14.97;100.00;99432.98;108409;1261;66299;-47
2023/06/10 00:54:59;;;;;;;1.30;1.00;;;;;;;15.03;100.00;99430.97;106281;1264;72628;-46
2023/06/10 00:57:27;;;;;;;4.10;1.20;;;;;;;15.05;100.00;99429.86;104955;1271;60008;-46
2023/06/10 00:59:54;;;;;;;5.60;1.50;;;;;;;15.05;100.00;99433.14;104602;1261;59971;-46
2023/06/10 01:02:22;;;;;;;1.50;1.20;;;;;;;15.02;100.00;99432.98;104588;1267;73068;-45
2023/06/10 01:04:52;;;;;;;1.40;1.00;;;;;;;15.00;100.00;99433.89;105606;1266;67702;-47
2023/06/10 01:07:27;;;;;;;2.70;1.20;;;;;;;14.95;100.00;99434.03;105584;1259;73217;-47
2023/06/10 01:10:18;;;;;;;1.90;0.90;;;;;;;14.92;100.00;99433.02;105150;1260;61178;-47
2023/06/10 01:12:59;;;;;;;1.00;0.90;;;;;;;14.90;100.00;99430.61;108414;1255;60053;-46
2023/06/10 01:15:26;;;;;;;1.00;0.90;;;;;;;14.86;100.00;99435.66;105262;1260;72738;-45
2023/06/10 01:17:57;;;;;;;0.80;0.80;;;;;;;14.81;100.00;99439.95;105474;1261;67523;-46
2023/06/10 01:20:26;;;;;;;2.10;0.90;;;;;;;14.81;100.00;99441.41;105495;1259;72054;-45
2023/06/10 01:22:57;;;;;;;1.50;1.10;;;;;;;14.81;100.00;99446.26;106588;1253;61933;-45
2023/06/10 01:25:29;;;;;;;1.80;1.10;;;;;;;14.82;100.00;99443.10;105450;1253;60531;-46
2023/06/10 01:28:03;;;;;;;1.50;1.00;;;;;;;14.84;100.00;99444.63;105522;1258;71815;-45
2023/06/10 01:30:33;;;;;;;4.30;1.00;;;;;;;14.84;100.00;99452.02;105639;1260;67593;-46
2023/06/10 01:33:00;;;;;;;1.10;0.90;;;;;;;14.84;100.00;99454.52;105640;1259;71392;-45
2023/06/10 01:35:28;;;;;;;1.30;1.20;;;;;;;14.84;100.00;99451.99;105461;1261;62614;-47
2023/06/10 01:37:55;;;;;;;2.20;1.10;;;;;;;14.85;100.00;99453.60;105518;1254;60743;-46
2023/06/10 01:40:23;;;;;;;4.40;1.50;;;;;;;14.84;100.00;99451.65;105436;1259;73801;-47
2023/06/10 01:42:52;;;;;;;3.60;1.30;;;;;;;14.82;100.00;99449.30;106472;1253;67888;-46
2023/06/10 01:45:19;;;;;;;1.20;1.10;;;;;;;14.81;100.00;99452.96;105368;1258;72695;-46
2023/06/10 01:47:46;;;;;;;1.60;1.10;;;;;;;14.81;100.00;99450.06;105356;1261;60751;-47
2023/06/10 01:50:14;;;;;;;2.50;1.20;;;;;;;14.81;100.00;99451.48;105416;1253;60619;-46
2023/06/10 01:52:42;;;;;;;2.50;1.20;;;;;;;14.82;100.00;99452.17;105373;1259;73887;-47
2023/06/10 01:55:09;;;;;;;1.60;1.10;;;;;;;14.81;100.00;99446.86;105341;1264;66361;-47
2023/06/10 01:57:40;;;;;;;4.20;1.10;;;;;;;14.77;100.00;99445.65;105452;1257;72595;-45
2023/06/10 02:00:08;;;;;;;3.70;1.10;;;;;;;14.71;100.00;99450.20;105397;1257;60624;-46
2023/06/10 02:02:41;;;;;;;5.70;1.10;;;;;;;14.67;100.00;99447.24;105533;1258;60457;-45
2023/06/10 02:05:08;;;;;;;1.40;1.10;;;;;;;14.63;100.00;99451.12;106298;1257;73834;-46
2023/06/10 02:07:36;;;;;;;1.40;1.20;;;;;;;14.56;100.00;99450.55;105602;1258;67559;-46
2023/06/10 02:10:04;;;;;;;1.60;1.10;;;;;;;14.52;100.00;99452.69;105372;1253;72154;-45
2023/06/10 02:12:32;;;;;;;1.30;1.10;;;;;;;14.50;100.00;99458.77;105775;1261;61739;-46
2023/06/10 02:14:59;;;;;;;1.20;0.90;;;;;;;14.43;100.00;99458.87;105233;1253;61386;-47
2023/06/10 02:17:26;;;;;;;3.40;1.10;;;;;;;14.41;100.00;99456.14;105492;1254;72450;-46
2023/06/10 02:19:54;;;;;;;2.20;1.10;;;;;;;14.42;100.00;99459.47;105448;1254;67190;-46
2023/06/10 02:22:22;;;;;;;1.70;1.30;;;;;;;14.45;100.00;99457.84;105320;1260;72703;-44
2023/06/10 02:24:49;;;;;;;4.20;1.00;;;;;;;14.50;100.00;99452.80;105139;1254;62311;-45
2023/06/10 02:27:18;;;;;;;1.70;1.10;;;;;;;14.54;100.00;99455.05;105430;1258;60393;-46
2023/06/10 02:29:45;;;;;;;1.10;1.00;;;;;;;14.57;100.00;99457.86;105406;1257;74340;-45
2023/06/10 02:32:13;;;;;;;2.30;1.40;;;;;;;14.61;100.00;99459.44;105241;1254;66622;-46
2023/06/10 02:34:42;;;;;;;1.40;1.20;;;;;;;14.63;100.00;99460.70;105200;1259;74433;-46
2023/06/10 02:37:10;;;;;;;2.10;1.10;;;;;;;14.64;100.00;99462.59;105505;1257;61368;-45
2023/06/10 02:39:37;;;;;;;1.30;1.10;;;;;;;14.65;100.00;99463.44;105181;1254;60361;-45
2023/06/10 02:42:07;;;;;;;2.60;1.00;;;;;;;14.66;100.00;99464.10;107290;1254;73770;-45
2023/06/10 02:44:34;;;;;;;2.00;1.10;;;;;;;14.66;100.00;99463.95;105149;1254;67620;-47
2023/06/10 02:47:02;;;;;;;1.00;0.90;;;;;;;14.67;100.00;99465.10;105153;1254;71462;-45
2023/06/10 02:49:30;;;;;;;3.00;1.40;;;;;;;14.72;100.00;99468.58;104992;1257;61754;-45
2023/06/10 02:51:59;;;;;;;1.80;1.50;;;;;;;14.77;100.00;99472.40;105430;1254;60463;-46
2023/06/10 02:54:26;;;;;;;1.90;1.30;;;;;;;14.83;100.00;99474.52;104875;1257;73814;-46
2023/06/10 02:56:55;;;;;;;2.80;1.00;;;;;;;14.86;100.00;99473.77;105266;1260;66346;-45
2023/06/10 02:59:26;;;;;;;2.20;1.20;;;;;;;14.89;100.00;99474.77;105241;1257;71168;-44
2023/06/10 03:01:54;;;;;;;1.80;1.00;;;;;;;14.94;100.00;99474.09;105376;1254;60601;-45
2023/06/10 03:04:23;;;;;;;2.00;1.00;;;;;;;15.00;100.00;99477.42;105168;1254;60540;-45
2023/06/10 03:06:56;;;;;;;1.50;1.10;;;;;;;15.07;100.00;99481.79;105300;1254;72587;-45
2023/06/10 03:09:29;;;;;;;2.10;1.20;;;;;;;15.10;100.00;99476.35;108882;1253;67903;-47
2023/06/10 03:11:57;;;;;;;2.40;1.30;;;;;;;15.12;100.00;99478.38;108989;1253;71457;-46
2023/06/10 03:14:25;;;;;;;1.80;1.60;;;;;;;15.17;100.00;99479.98;108939;1254;62245;-46
2023/06/10 03:16:53;;;;;;;3.20;1.10;;;;;;;15.24;100.00;99479.85;108845;1253;60806;-46
2023/06/10 03:19:23;;;;;;;5.40;1.50;;;;;;;15.30;100.00;99481.04;108858;1253;73953;-47
2023/06/10 03:22:07;;;;;;;1.40;1.30;;;;;;;15.37;100.00;99479.46;106883;1260;66311;-46
2023/06/10 03:24:36;;;;;;;;;;;;;;;15.44;100.00;99481.32;109024;1253;73099;-46
2023/06/10 03:27:04;;;;;;;1.50;1.10;;;;;;;15.49;100.00;99480.17;108809;1254;61709;-47
2023/06/10 03:29:32;;;;;;;2.10;1.00;;;;;;;15.55;100.00;99480.95;108827;1254;60041;-46
2023/06/10 03:32:00;;;;;;;2.00;1.40;;;;;;;15.59;100.00;99480.58;108755;1254;71270;-47
2023/06/10 03:34:27;;;;;;;1.90;1.60;;;;;;;15.66;100.00;99480.27;108806;1254;67942;-47
2023/06/10 03:36:56;;;;;;;2.00;1.50;;;;;;;15.75;100.00;99483.61;108278;1254;72105;-45
2023/06/10 03:39:23;;;;;;;1.80;1.50;;;;;;;15.84;100.00;99488.12;108746;1254;60428;-47
2023/06/10 03:41:51;;;;;;;3.70;1.40;;;;;;;15.94;100.00;99491.37;108711;1254;59520;-47
2023/06/10 03:44:18;;;;;;;4.00;1.50;;;;;;;16.05;100.00;99496.39;107000;1256;72617;-45
2023/06/10 03:46:47;;;;;;;3.00;1.20;;;;;;;16.15;100.00;99496.72;105413;1254;67466;-45
2023/06/10 03:49:15;;;;;;;2.20;1.20;;;;;;;16.24;100.00;99493.83;105756;1254;74761;-45
2023/06/10 03:51:43;;;;;;;2.10;1.30;;;;;;;16.35;100.00;99493.91;106175;1254;61773;-45
2023/06/10 03:54:10;;;;;;;2.70;1.20;;;;;;;16.46;100.00;99492.84;105319;1254;60451;-45
2023/06/10 03:56:38;;;;;;;3.20;1.60;;;;;;;16.58;100.00;99496.09;105282;1259;73840;-45
2023/06/10 03:59:06;;;;;;;3.00;1.80;;;;;;;16.73;100.00;99500.61;105217;1253;67753;-46
2023/06/10 04:01:35;;;;;;;2.20;1.30;;;;;;;16.89;100.00;99499.34;105207;1255;73083;-45
2023/06/10 04:04:02;;;;;;;3.40;2.10;;;;;;;17.04;100.00;99497.65;105209;1254;61382;-46
2023/06/10 04:06:33;;;;;;;2.50;1.60;;;;;;;17.18;100.00;99502.69;105245;1254;60444;-46
2023/06/10 04:09:01;;;;;;;2.10;1.70;;;;;;;17.31;100.00;99506.84;105243;1254;74940;-46
2023/06/10 04:11:28;;;;;;;4.30;2.00;;;;;;;17.45;100.00;99505.06;105263;1254;67604;-47
2023/06/10 04:13:56;;;;;;;3.80;2.00;;;;;;;17.55;100.00;99508.18;105240;1256;71738;-45
2023/06/10 04:16:24;;;;;;;2.90;1.90;;;;;;;17.66;100.00;99512.02;107037;1254;60472;-46
2023/06/10 04:18:52;;;;;;;3.90;2.40;;;;;;;17.75;100.00;99510.21;106258;1253;59353;-46
2023/06/10 04:21:19;;;;;;;2.30;2.00;;;;;;;17.83;100.00;99505.17;105547;1256;73897;-46
2023/06/10 04:23:49;;;;;;;3.20;1.80;;;;;;;17.91;100.00;99509.45;105286;1260;66349;-46
2023/06/10 04:26:17;;;;;;;3.70;1.80;;;;;;;18.01;100.00;99509.15;105317;1254;71707;-44
2023/06/10 04:28:44;;;;;;;3.30;1.50;;;;;;;18.11;100.00;99511.05;105329;1253;60413;-46
2023/06/10 04:31:12;;;;;;;2.80;1.30;;;;;;;18.24;100.00;99513.77;105431;1259;60496;-45
2023/06/10 04:33:40;;;;;;;2.20;1.20;;;;;;;18.38;100.00;99511.66;106429;1253;73878;-45
2023/06/10 04:36:08;;;;;;;4.70;1.70;;;;;;;18.52;100.00;99514.89;108491;1254;68225;-46
2023/06/10 04:38:35;;;;;;;6.80;1.90;;;;;;;18.67;100.00;99520.73;105173;1256;72722;-45
2023/06/10 04:41:03;;;;;;;6.30;1.80;;;;;;;18.80;100.00;99519.55;105362;1253;61796;-46
2023/06/10 04:43:32;;;;;;;6.00;1.50;;;;;;;18.96;100.00;99520.93;105529;1255;60537;-46
2023/06/10 04:46:01;;;;;;;1.80;1.70;;;;;;;19.09;100.00;99518.36;105454;1253;72559;-46
2023/06/10 04:48:29;;;;;;;4.50;2.00;;;;;;;19.20;100.00;99523.68;106174;1254;67360;-45
2023/06/10 04:50:56;;;;;;;2.90;1.40;;;;;;;19.33;100.00;99524.39;105419;1254;72632;-46
2023/06/10 04:53:23;;;;;;;3.90;1.50;;;;;;;19.43;100.00;99521.09;105449;1257;60610;-46
2023/06/10 04:55:51;;;;;;;1.50;1.40;;;;;;;19.53;100.00;99520.95;105072;1253;60399;-45
2023/06/10 04:58:18;;;;;;;3.40;1.60;;;;;;;19.63;100.00;99524.77;104954;1253;73767;-46
2023/06/10 05:00:45;;;;;;;3.30;1.70;;;;;;;19.73;100.00;99525.38;104958;1253;68444;-44
2023/06/10 05:03:12;;;;;;;2.60;1.60;;;;;;;19.83;100.00;99524.15;105018;1253;71434;-45
2023/06/10 05:05:40;;;;;;;2.20;1.40;;;;;;;19.92;100.00;99524.15;105452;1254;60837;-47
2023/06/10 05:08:08;;;;;;;1.70;1.40;;;;;;;20.02;100.00;99525.08;105421;1259;60466;-46
2023/06/10 05:10:35;;;;;;;1.80;1.60;;;;;;;20.11;100.00;99521.73;105330;1253;72717;-47
2023/06/10 05:13:03;;;;;;;3.60;1.30;;;;;;;20.19;100.00;99527.71;105431;1253;68587;-47
2023/06/10 05:15:30;;;;;;;5.00;1.40;;;;;;;20.27;100.00;99527.93;106416;1258;70795;-46
2023/06/10 05:17:58;;;;;;;1.40;1.30;;;;;;;20.33;100.00;99528.77;106669;1255;60303;-46
2023/06/10 05:20:26;;;;;;;3.70;1.80;;;;;;;20.41;100.00;99531.42;105398;1253;60542;-47
2023/06/10 05:22:54;;;;;;;1.50;1.40;;;;;;;20.49;100.00;99526.45;105873;1254;73267;-46
2023/06/10 05:25:21;;;;;;;4.40;1.70;;;;;;;20.59;100.00;99523.70;105175;1253;67757;-48
2023/06/10 05:27:48;;;;;;;1.60;1.10;;;;;;;20.69;100.00;99523.15;105426;1257;72329;-46
2023/06/10 05:30:18;;;;;;;4.10;1.30;;;;;;;20.76;100.00;99523.30;105440;1259;60588;-46
2023/06/10 05:32:45;;;;;;;2.80;1.10;;;;;;;20.84;100.00;99521.48;105502;1253;60441;-45
2023/06/10 05:35:13;;;;;;;3.00;1.00;;;;;;;20.93;100.00;99525.73;105853;1258;74218;-45
2023/06/10 05:37:40;;;;;;;8.80;1.90;;;;;;;21.00;100.00;99527.10;105439;1259;69146;-45
2023/06/10 05:40:08;;;;;;;1.30;1.00;;;;;;;21.08;100.00;99532.52;105357;1253;71378;-45
2023/06/10 05:42:35;;;;;;;4.00;1.40;;;;;;;21.15;100.00;99526.53;105708;1257;60539;-47
2023/06/10 05:45:03;;;;;;;3.50;1.90;;;;;;;21.25;100.00;99529.89;105271;1259;60475;-47
2023/06/10 05:47:30;;;;;;;1.90;1.30;;;;;;;21.32;100.00;99532.40;105464;1258;74287;-45
2023/06/10 05:49:58;;;;;;;3.60;1.10;;;;;;;21.41;100.00;99536.30;105414;1255;68595;-44
2023/06/10 05:52:25;;;;;;;2.20;1.00;;;;;;;21.50;100.00;99532.27;105341;1254;71418;-47
2023/06/10 05:54:54;;;;;;;3.10;2.20;;;;;;;21.61;100.00;99536.70;106023;1257;60524;-45
2023/06/10 05:57:21;;;;;;;1.80;1.30;;;;;;;21.72;100.00;99533.44;105386;1256;60470;-45
2023/06/10 05:59:49;;;;;;;3.80;1.10;;;;;;;21.82;100.00;99534.25;105460;1258;73803;-48
2023/06/10 06:02:19;;;;;;;2.00;1.30;;;;;;;21.94;100.00;99535.92;105663;1254;68527;-45
2023/06/10 06:04:47;;;;;;;2.90;1.00;;;;;;;22.04;100.00;99538.21;105367;1257;72482;-45
2023/06/10 06:07:15;;;;;;;1.90;1.00;;;;;;;22.12;100.00;99535.19;105294;1257;60495;-45
2023/06/10 06:09:42;;;;;;;1.10;1.00;;;;;;;22.18;100.00;99538.42;105393;1257;60674;-44
2023/06/10 06:12:10;;;;;;;2.10;0.90;;;;;;;22.24;100.00;99540.93;105466;1253;72783;-44
2023/06/10 06:14:41;;;;;;;4.30;1.20;;;;;;;22.29;100.00;99541.33;109053;1253;68215;-47
2023/06/10 06:17:08;;;;;;;3.50;1.10;;;;;;;22.34;100.00;99541.36;109167;1252;71402;-47
2023/06/10 06:19:35;;;;;;;1.70;0.90;;;;;;;22.40;100.00;99545.94;108998;1254;60007;-50
2023/06/10 06:22:03;;;;;;;3.50;1.20;;;;;;;22.46;100.00;99547.98;109149;1253;60445;-46
2023/06/10 06:24:30;;;;;;;1.40;0.80;;;;;;;22.56;100.00;99546.61;109126;1253;73765;-47
2023/06/10 06:26:57;;;;;;;4.80;0.90;;;;;;;22.66;100.00;99544.17;107549;1253;66744;-45
2023/06/10 06:29:24;;;;;;;2.20;1.30;;;;;;;22.76;100.00;99544.84;105439;1254;71353;-47
2023/06/10 06:31:52;;;;;;;2.10;1.10;;;;;;;22.87;100.00;99547.88;108986;1256;60060;-46
2023/06/10 06:34:20;;;;;;;13.40;1.20;;;;;;;22.97;100.00;99551.79;107293;1253;59775;-45
2023/06/10 06:36:47;;;;;;;2.40;1.00;;;;;;;23.06;100.00;99548.30;105345;1256;73286;-46
2023/06/10 06:39:15;;;;;;;1.10;1.00;;;;;;;23.13;100.00;99548.52;105319;1253;67692;-48
2023/06/10 06:41:42;;;;;;;1.20;1.00;;;;;;;23.14;100.00;99548.36;105636;1254;73362;-45
2023/06/10 06:44:10;;;;;;;1.20;0.90;;;;;;;23.15;100.00;99551.98;105400;1258;60369;-49
2023/06/10 06:46:38;;;;;;;1.70;1.00;;;;;;;23.17;100.00;99556.86;105562;1258;60529;-47
2023/06/10 06:49:06;;;;;;;2.40;0.80;;;;;;;23.18;100.00;99553.48;105369;1257;73860;-45
2023/06/10 06:51:33;;;;;;;4.80;1.10;;;;;;;23.18;100.00;99555.70;105587;1257;67908;-50
2023/06/10 06:54:01;;;;;;;0.90;0.90;;;;;;;23.19;100.00;99556.62;104959;1258;71629;-44
2023/06/10 06:56:28;;;;;;;2.00;0.90;;;;;;;23.25;100.00;99555.21;104844;1260;60552;-45
2023/06/10 06:58:55;;;;;;;3.80;1.00;;;;;;;23.33;100.00;99550.55;105265;1253;60461;-46
2023/06/10 07:01:24;;;;;;;5.30;1.50;;;;;;;23.39;100.00;99546.85;105358;1253;72097;-45
2023/06/10 07:03:51;;;;;;;5.00;1.20;;;;;;;23.44;100.00;99545.27;106250;1254;67506;-46
2023/06/10 07:06:19;;;;;;;2.40;0.90;;;;;;;23.51;100.00;99548.50;105367;1258;72851;-45
2023/06/10 07:08:46;;;;;;;5.70;0.90;;;;;;;23.60;100.00;99547.71;105374;1258;60354;-46
2023/06/10 07:11:14;;;;;;;1.40;1.00;;;;;;;23.70;100.00;99549.84;105461;1256;60536;-47
2023/06/10 07:13:41;;;;;;;3.20;1.10;;;;;;;23.79;100.00;99546.83;105562;1257;73981;-44
2023/06/10 07:16:09;;;;;;;1.60;1.00;;;;;;;23.88;100.00;99545.52;105601;1253;68053;-47
2023/06/10 07:18:36;;;;;;;4.30;1.20;;;;;;;23.96;100.00;99544.23;105472;1254;72717;-47
2023/06/10 07:21:03;;;;;;;3.30;1.10;;;;;;;24.01;100.00;99550.48;105532;1254;60564;-44
2023/06/10 07:23:31;;;;;;;3.00;1.20;;;;;;;24.02;100.00;99551.63;105595;1254;60389;-47
2023/06/10 07:25:58;;;;;;;2.70;1.20;;;;;;;24.01;100.00;99554.69;105358;1257;73759;-47
2023/06/10 07:28:25;;;;;;;3.70;1.40;;;;;;;23.98;100.00;99553.02;105207;1253;67538;-46
2023/06/10 07:30:53;;;;;;;2.30;1.60;;;;;;;23.96;100.00;99555.29;105391;1254;72686;-46
2023/06/10 07:33:20;;;;;;;2.10;1.00;;;;;;;23.98;100.00;99557.12;105296;1254;60537;-49
2023/06/10 07:35:47;;;;;;;3.50;1.20;;;;;;;23.98;100.00;99558.31;105026;1257;60358;-44
2023/06/10 07:38:14;;;;;;;2.00;1.10;;;;;;;24.00;100.00;99560.10;105124;1257;73901;-46
2023/06/10 07:40:42;;;;;;;1.70;1.50;;;;;;;24.02;100.00;99558.13;105401;1254;66952;-46
2023/06/10 07:43:09;;;;;;;2.30;1.20;;;;;;;24.01;100.00;99560.35;104535;1254;73280;-47
2023/06/10 07:45:36;;;;;;;1.70;1.00;;;;;;;24.01;100.00;99559.70;105018;1257;62068;-44
2023/06/10 07:48:04;;;;;;;1.60;1.00;;;;;;;24.01;100.00;99560.04;105109;1254;60495;-42
2023/06/10 07:50:31;;;;;;;10.20;1.20;;;;;;;23.99;100.00;99560.95;105179;1254;72944;-43
2023/06/10 07:52:59;;;;;;;2.30;1.00;;;;;;;23.97;100.00;99557.93;105598;1253;67849;-46
2023/06/10 07:55:27;;;;;;;3.30;1.00;;;;;;;23.95;100.00;99559.60;105054;1253;71838;-45
2023/06/10 07:57:54;;;;;;;3.00;0.90;;;;;;;23.96;100.00;99557.45;104963;1254;61048;-45
2023/06/10 08:00:21;;;;;;;2.80;1.10;;;;;;;23.97;100.00;99557.02;105227;1253;60584;-45
2023/06/10 08:02:50;;;;;;;2.50;1.00;;;;;;;23.98;100.00;99555.73;105847;1254;73787;-49
2023/06/10 08:05:17;;;;;;;2.40;1.00;;;;;;;24.01;100.00;99551.45;106404;1254;71928;-46
2023/06/10 08:07:45;;;;;;;1.80;0.90;;;;;;;24.02;100.00;99554.79;105419;1254;72790;-45
2023/06/10 08:10:12;;;;;;;2.70;1.00;;;;;;;24.04;100.00;99556.21;105218;1256;61280;-43
2023/06/10 08:12:40;;;;;;;1.20;1.00;;;;;;;24.07;100.00;99554.40;104829;1255;60078;-46
2023/06/10 08:15:08;;;;;;;1.40;0.90;;;;;;;24.14;100.00;99551.15;105031;1253;73903;-46
2023/06/10 08:17:37;;;;;;;2.40;0.80;;;;;;;24.20;100.00;99549.42;105328;1254;67608;-50
2023/06/10 08:20:06;;;;;;;1.80;1.00;;;;;;;24.28;100.00;99550.60;106064;1254;73040;-48
2023/06/10 08:22:33;;;;;;;4.30;1.00;;;;;;;24.35;100.00;99550.33;105487;1258;61636;-46
2023/06/10 08:25:00;;;;;;;2.30;1.00;;;;;;;24.41;100.00;99548.36;104963;1254;60537;-45
2023/06/10 08:27:28;;;;;;;1.70;1.00;;;;;;;24.50;100.00;99549.58;105309;1256;73952;-46
2023/06/10 08:29:55;;;;;;;3.90;0.80;;;;;;;24.58;100.00;99550.36;104924;1253;67862;-47
2023/06/10 08:32:23;;;;;;;2.30;0.90;;;;;;;24.69;100.00;99551.73;104903;1255;71384;-45
2023/06/10 08:34:50;;;;;;;3.00;1.20;;;;;;;24.79;100.00;99547.27;104798;1256;60432;-48
2023/06/10 08:37:17;;;;;;;2.10;0.80;;;;;;;24.86;100.00;99545.38;104873;1254;60891;-46
2023/06/10 08:39:45;;;;;;;1.60;1.00;;;;;;;24.89;100.00;99547.61;105159;1257;73910;-47
2023/06/10 08:42:28;;;;;;;1.50;1.00;;;;;;;24.92;100.00;99544.08;104805;1253;71294;-45
2023/06/10 08:44:55;;;;;;;3.90;0.80;;;;;;;24.92;100.00;99544.99;105616;1253;72612;-50
2023/06/10 08:47:24;;;;;;;2.70;0.80;;;;;;;24.96;100.00;99546.60;108969;1253;58775;-50
2023/06/10 08:49:56;;;;;;;3.00;0.90;;;;;;;25.04;100.00;99548.44;109056;1253;60110;-47
2023/06/10 08:52:24;;;;;;;0.80;0.80;;;;;;;25.14;100.00;99557.60;108889;1253;73801;-46
2023/06/10 08:54:58;;;;;;;1.00;0.70;;;;;;;25.16;100.00;99555.14;109088;1253;66629;-48
2023/06/10 08:57:26;;;;;;;1.00;0.80;;;;;;;25.16;100.00;99559.69;105167;1258;72466;-46
2023/06/10 08:59:56;;;;;;;3.20;0.80;;;;;;;25.17;100.00;99565.34;105325;1253;60445;-46
2023/06/10 09:02:24;;;;;;;1.10;0.80;;;;;;;25.20;100.00;99567.92;105340;1253;60517;-45
2023/06/10 09:04:51;;;;;;;1.90;0.90;;;;;;;25.21;100.00;99562.11;109029;1253;72783;-46
2023/06/10 09:07:19;;;;;;;2.80;1.10;;;;;;;25.19;100.00;99562.07;105278;1256;67519;-48
2023/06/10 09:09:49;;;;;;;2.70;1.00;;;;;;;25.18;100.00;99558.69;104912;1254;71323;-50
2023/06/10 09:12:16;;;;;;;0.90;0.80;;;;;;;25.24;100.00;99558.98;107796;1256;60568;-48
2023/06/10 09:14:43;;;;;;;1.80;1.00;;;;;;;25.27;100.00;99561.59;108876;1254;60000;-51
2023/06/10 09:17:11;;;;;;;1.70;0.90;;;;;;;25.29;100.00;99563.42;108892;1253;72291;-47
2023/06/10 09:19:38;;;;;;;2.30;0.90;;;;;;;25.34;100.00;99567.45;108993;1256;66701;-48
2023/06/10 09:22:05;;;;;;;1.60;0.90;;;;;;;25.34;100.00;99565.91;108981;1253;72596;-46
2023/06/10 09:24:33;;;;;;;0.90;0.80;;;;;;;25.32;100.00;99560.13;109096;1253;60219;-46
2023/06/10 09:29:51;;;;;;;2.30;0.70;;;;;;;25.42;100.00;99558.02;102871;1286;601073;-49
2023/06/10 09:32:19;;;;;;;5.30;1.00;;;;;;;25.49;100.00;99555.05;108282;1266;60102;-47
2023/06/10 09:34:47;;;;;;;1.40;0.90;;;;;;;25.59;100.00;99552.80;104626;1267;59235;-45
2023/06/10 09:37:20;;;;;;;2.60;0.90;;;;;;;25.71;100.00;99552.21;104206;1272;72001;-47
2023/06/10 09:40:05;;;;;;;1.00;0.80;;;;;;;25.81;100.00;99553.27;104129;1272;66519;-47
2023/06/10 09:42:34;;;;;;;4.50;1.10;;;;;;;25.85;100.00;99556.13;104250;1273;194528;-50
2023/06/10 09:45:03;;;;;;;1.20;1.00;;;;;;;25.81;100.00;99550.47;106497;1268;61594;-46
2023/06/10 09:47:30;;;;;;;1.50;0.60;;;;;;;25.78;100.00;99547.30;104133;1269;60033;-46
2023/06/10 09:49:57;;;;;;;1.10;0.80;;;;;;;25.74;100.00;99544.09;104228;1269;71930;-45
2023/06/10 09:52:26;;;;;;;4.00;0.90;;;;;;;25.71;100.00;99538.42;104111;1264;68019;-45
2023/06/10 09:54:58;;;;;;;3.60;0.80;;;;;;;25.71;100.00;99534.91;104524;1267;75489;-46
2023/06/10 09:57:30;;;;;;;1.70;0.80;;;;;;;25.74;100.00;99530.75;105113;1264;59733;-44
2023/06/10 09:59:58;;;;;;;4.60;0.90;;;;;;;25.77;100.00;99531.97;104763;1264;60032;-48
2023/06/10 10:02:25;;;;;;;1.60;0.80;;;;;;;25.79;100.00;99524.42;104192;1269;74855;-44
2023/06/10 10:04:53;;;;;;;2.80;0.80;;;;;;;25.80;100.00;99523.00;104117;1269;67583;-45
2023/06/10 10:07:20;;;;;;;1.10;0.90;;;;;;;25.75;100.00;99519.55;104312;1269;72565;-45
2023/06/10 10:09:47;;;;;;;4.60;0.70;;;;;;;25.72;100.00;99519.20;104121;1264;60651;-43
2023/06/10 10:12:15;;;;;;;2.00;0.80;;;;;;;25.71;100.00;99521.51;104406;1269;60099;-49
2023/06/10 10:14:46;;;;;;;3.70;0.80;;;;;;;25.65;100.00;99523.08;104159;1269;72966;-47
2023/06/10 10:17:15;;;;;;;1.10;0.90;;;;;;;25.56;100.00;99525.55;104331;1271;66385;-46
2023/06/10 10:19:55;;;;;;;4.40;0.90;;;;;;;25.52;100.00;99518.15;105656;1264;72920;-44
2023/06/10 10:22:26;;;;;;;1.10;0.80;;;;;;;25.46;100.00;99514.75;104962;1265;59620;-45
2023/06/10 10:24:56;;;;;;;2.90;0.80;;;;;;;25.38;100.00;99512.45;104652;1269;60059;-44
2023/06/10 10:27:28;;;;;;;2.00;0.90;;;;;;;25.30;100.00;99510.73;104953;1267;73146;-44
2023/06/10 10:29:55;;;;;;;1.80;0.90;;;;;;;25.24;100.00;99505.52;104842;1269;67583;-46
2023/06/10 10:32:34;;;;;;;5.60;1.70;;;;;;;25.22;100.00;99503.75;104371;1270;72702;-47
2023/06/10 10:35:08;;;;;;;1.20;0.80;;;;;;;25.21;100.00;99501.34;105190;1270;59722;-45
2023/06/10 10:37:36;;;;;;;1.20;1.00;;;;;;;25.20;100.00;99501.58;105160;1264;60039;-50
2023/06/10 10:40:04;;;;;;;2.70;0.80;;;;;;;25.21;100.00;99499.96;104570;1270;72421;-45
2023/06/10 10:42:32;;;;;;;1.40;0.80;;;;;;;25.23;100.00;99500.15;104562;1271;68064;-46
2023/06/10 10:44:59;;;;;;;3.40;0.90;;;;;;;25.25;100.00;99496.80;104666;1269;72695;-45
2023/06/10 10:47:29;;;;;;;1.80;0.90;;;;;;;25.26;100.00;99496.20;105347;1264;60222;-44
2023/06/10 10:49:59;;;;;;;3.80;0.90;;;;;;;25.23;100.00;99491.02;104543;1272;61339;-50
2023/06/10 10:52:28;;;;;;;1.60;0.80;;;;;;;25.18;100.00;99493.52;104433;1269;73042;-50
2023/06/10 10:54:55;;;;;;;1.90;0.90;;;;;;;25.13;100.00;99492.13;104721;1263;68893;-46
2023/06/10 10:57:23;;;;;;;2.20;0.80;;;;;;;25.09;100.00;99483.91;104533;1269;73159;-50
2023/06/10 11:00:04;;;;;;;4.00;0.80;;;;;;;25.11;100.00;99489.09;105174;1263;60130;-50
2023/06/10 11:02:38;;;;;;;1.70;0.80;;;;;;;25.13;100.00;99489.20;105479;1268;59153;-49
2023/06/10 11:05:07;;;;;;;;;;;;;;;25.16;100.00;99489.71;104487;1269;73604;-49
2023/06/10 11:07:38;;;;;;;3.80;0.90;;;;;;;25.17;100.00;99486.89;108090;1264;67639;-49
2023/06/10 11:10:07;;;;;;;7.30;0.90;;;;;;;25.15;100.00;99487.35;108181;1264;73278;-46
2023/06/10 11:12:46;;;;;;;3.70;0.80;;;;;;;25.15;100.00;99487.71;108367;1263;59250;-45
2023/06/10 11:15:14;;;;;;;4.30;0.80;;;;;;;25.13;100.00;99479.77;106650;1269;60052;-47
2023/06/10 11:18:10;;;;;;;4.00;0.90;;;;;;;25.13;100.00;99478.31;108122;1269;73248;-46
2023/06/10 11:21:04;;;;;;;4.50;1.00;;;;;;;25.15;100.00;99478.64;108367;1264;67976;-44
2023/06/10 11:23:31;;;;;;;5.10;1.20;;;;;;;25.18;100.00;99478.30;105140;1271;73438;-46
2023/06/10 11:26:20;;;;;;;3.50;0.80;;;;;;;25.17;100.00;99475.30;104613;1269;59957;-47